Time;durP1;ratioP1;P1;durP2;ratioP2;P2;SDS_P1;SDS_P2;PMS_P1;PMS_P2;Temp;Humidity;BMP_temperature;BMP_pressure;BME280_temperature;BME280_humidity;BME280_pressure;Samples;Min_cycle;Max_cycle;Signal;HPM_P1;HPM_P2
2024/01/16 00:01:14;;;;;;;4.33;2.67;;;;;;;;;;6089709;23;20030;-80
2024/01/16 00:03:48;;;;;;;2.65;2.03;;;;;;;;;;6090241;23;20022;-79
2024/01/16 00:06:15;;;;;;;5.17;2.80;;;;;;;;;;6088275;23;20037;-77
2024/01/16 00:08:49;;;;;;;4.40;2.83;;;;;;;;;;6089237;23;20329;-79
2024/01/16 00:11:16;;;;;;;4.63;2.50;;;;;;;;;;6090252;23;20026;-79
2024/01/16 00:13:43;;;;;;;4.17;2.60;;;;;;;;;;6089193;23;20026;-79
2024/01/16 00:16:17;;;;;;;4.57;2.40;;;;;;;;;;6090478;23;20027;-79
2024/01/16 00:18:44;;;;;;;5.13;2.80;;;;;;;;;;6088009;23;20084;-79
2024/01/16 00:21:18;;;;;;;6.30;3.20;;;;;;;;;;6085956;23;20026;-79
2024/01/16 00:23:52;;;;;;;5.37;2.93;;;;;;;;;;6089835;23;20089;-79
2024/01/16 00:26:20;;;;;;;5.67;2.50;;;;;;;;;;6090313;23;20027;-79
2024/01/16 00:28:54;;;;;;;5.17;2.50;;;;;;;;;;6086783;23;20022;-79
2024/01/16 00:31:28;;;;;;;12.40;2.77;;;;;;;;;;6087360;23;20113;-78
2024/01/16 00:33:55;;;;;;;4.90;2.40;;;;;;;;;;6089544;23;20033;-78
2024/01/16 00:36:23;;;;;;;3.67;2.43;;;;;;;;;;6089041;23;20030;-79
2024/01/16 00:38:57;;;;;;;2.87;2.23;;;;;;;;;;6089252;23;20073;-76
2024/01/16 00:41:24;;;;;;;3.70;2.53;;;;;;;;;;6090006;23;20089;-78
2024/01/16 00:43:58;;;;;;;4.47;2.43;;;;;;;;;;6087726;23;20050;-78
2024/01/16 00:46:32;;;;;;;4.07;2.47;;;;;;;;;;6087747;23;20472;-79
2024/01/16 00:49:07;;;;;;;3.10;2.27;;;;;;;;;;6089037;23;20026;-80
2024/01/16 00:51:43;;;;;;;10.80;2.43;;;;;;;;;;6089226;23;20022;-78
2024/01/16 00:54:11;;;;;;;7.33;2.30;;;;;;;;;;6084378;23;20401;-78
2024/01/16 00:56:42;;;;;;;5.13;2.37;;;;;;;;;;6090001;23;20026;-79
2024/01/16 00:59:16;;;;;;;5.40;2.97;;;;;;;;;;6089297;23;20030;-79
2024/01/16 01:01:43;;;;;;;5.83;2.93;;;;;;;;;;6088234;23;20026;-78
2024/01/16 01:04:17;;;;;;;3.17;2.40;;;;;;;;;;6091074;23;20027;-78
2024/01/16 01:06:44;;;;;;;5.33;2.20;;;;;;;;;;6091804;23;20033;-80
2024/01/16 01:09:11;;;;;;;3.93;2.53;;;;;;;;;;6089916;23;20027;-79
2024/01/16 01:11:46;;;;;;;3.47;2.07;;;;;;;;;;6088184;23;20026;-78
2024/01/16 01:14:13;;;;;;;2.77;2.00;;;;;;;;;;6089087;23;20500;-79
2024/01/16 01:16:47;;;;;;;6.40;2.30;;;;;;;;;;6087150;23;20101;-79
2024/01/16 01:19:27;;;;;;;4.07;2.33;;;;;;;;;;6089061;23;20038;-77
2024/01/16 01:22:01;;;;;;;4.22;1.98;;;;;;;;;;6089625;23;20027;-78
2024/01/16 01:24:28;;;;;;;3.50;2.37;;;;;;;;;;6087303;23;20038;-76
2024/01/16 01:26:56;;;;;;;3.67;2.00;;;;;;;;;;6090707;23;20411;-78
2024/01/16 01:29:30;;;;;;;5.30;2.60;;;;;;;;;;6090503;23;20019;-76
2024/01/16 01:31:57;;;;;;;6.33;2.80;;;;;;;;;;6090090;23;20022;-78
2024/01/16 01:34:31;;;;;;;4.77;2.60;;;;;;;;;;6089358;23;20479;-77
2024/01/16 01:36:59;;;;;;;3.17;2.00;;;;;;;;;;6089501;23;20027;-76
2024/01/16 01:39:26;;;;;;;4.77;2.27;;;;;;;;;;6089785;23;20086;-79
2024/01/16 01:42:00;;;;;;;3.17;2.30;;;;;;;;;;6091565;23;20033;-76
2024/01/16 01:44:27;;;;;;;4.03;2.50;;;;;;;;;;6090431;23;20101;-76
2024/01/16 01:47:01;;;;;;;8.37;2.43;;;;;;;;;;6091169;23;20069;-77
2024/01/16 01:49:29;;;;;;;3.73;2.67;;;;;;;;;;6092504;23;20022;-77
2024/01/16 01:51:56;;;;;;;3.03;2.03;;;;;;;;;;6092434;23;20109;-77
2024/01/16 01:54:30;;;;;;;4.97;2.83;;;;;;;;;;6091111;23;20085;-76
2024/01/16 01:56:57;;;;;;;5.17;2.77;;;;;;;;;;6089481;23;20308;-77
2024/01/16 01:59:31;;;;;;;13.83;4.37;;;;;;;;;;6090122;23;20038;-77
2024/01/16 02:01:59;;;;;;;20.30;6.30;;;;;;;;;;6089555;23;20404;-76
2024/01/16 02:04:26;;;;;;;20.77;5.67;;;;;;;;;;6090586;23;20317;-77
2024/01/16 02:07:01;;;;;;;13.07;5.40;;;;;;;;;;6092252;23;20022;-76
2024/01/16 02:09:28;;;;;;;12.70;5.13;;;;;;;;;;6088670;23;20030;-77
2024/01/16 02:12:02;;;;;;;17.00;4.87;;;;;;;;;;6090188;23;20029;-77
2024/01/16 02:14:29;;;;;;;4.70;3.13;;;;;;;;;;6091100;23;20086;-77
2024/01/16 02:16:56;;;;;;;8.90;3.50;;;;;;;;;;6084900;23;20133;-76
2024/01/16 02:19:43;;;;;;;7.50;3.03;;;;;;;;;;6087799;23;20026;-76
2024/01/16 02:22:23;;;;;;;5.72;2.85;;;;;;;;;;6092344;23;20074;-76
2024/01/16 02:24:57;;;;;;;3.07;1.70;;;;;;;;;;6090724;23;20093;-76
2024/01/16 02:27:24;;;;;;;2.67;2.17;;;;;;;;;;6088570;23;20536;-76
2024/01/16 02:29:58;;;;;;;2.50;2.30;;;;;;;;;;6089702;23;20026;-76
2024/01/16 02:32:25;;;;;;;3.83;2.57;;;;;;;;;;6090013;23;20038;-77
2024/01/16 02:34:52;;;;;;;2.90;2.47;;;;;;;;;;6090772;23;20022;-77
2024/01/16 02:37:26;;;;;;;4.37;2.30;;;;;;;;;;6090516;23;20038;-78
2024/01/16 02:39:53;;;;;;;3.03;2.03;;;;;;;;;;6090460;23;20022;-79
2024/01/16 02:42:27;;;;;;;2.90;1.67;;;;;;;;;;6089989;23;20030;-78
2024/01/16 02:45:01;;;;;;;3.00;2.07;;;;;;;;;;6091111;23;20397;-78
2024/01/16 02:47:35;;;;;;;3.87;2.30;;;;;;;;;;6090631;23;20472;-78
2024/01/16 02:50:03;;;;;;;3.00;2.10;;;;;;;;;;6090266;23;20026;-78
2024/01/16 02:52:30;;;;;;;3.63;2.27;;;;;;;;;;6091567;23;20029;-78
2024/01/16 02:55:11;;;;;;;6.10;2.67;;;;;;;;;;6087982;23;20030;-78
2024/01/16 02:57:38;;;;;;;3.43;2.13;;;;;;;;;;6092145;23;20026;-78
2024/01/16 03:00:13;;;;;;;3.27;2.33;;;;;;;;;;6091864;23;20026;-78
2024/01/16 03:02:40;;;;;;;6.47;2.63;;;;;;;;;;6092564;23;20223;-77
2024/01/16 03:05:09;;;;;;;4.27;1.80;;;;;;;;;;6089358;23;20356;-78
2024/01/16 03:07:43;;;;;;;4.87;2.37;;;;;;;;;;6089456;23;20033;-79
2024/01/16 03:10:11;;;;;;;3.97;2.37;;;;;;;;;;6088254;23;20460;-78
2024/01/16 03:12:44;;;;;;;7.43;2.23;;;;;;;;;;6089216;23;20030;-78
2024/01/16 03:15:11;;;;;;;5.27;2.43;;;;;;;;;;6090092;23;20026;-77
2024/01/16 03:17:39;;;;;;;4.83;2.43;;;;;;;;;;6088782;23;20026;-78
2024/01/16 03:20:20;;;;;;;4.77;2.30;;;;;;;;;;6088201;23;20452;-78
2024/01/16 03:22:54;;;;;;;3.30;2.20;;;;;;;;;;6089302;23;20030;-78
2024/01/16 03:25:28;;;;;;;3.77;2.17;;;;;;;;;;6088524;23;20456;-78
2024/01/16 03:27:55;;;;;;;7.03;1.90;;;;;;;;;;6089091;23;20022;-78
2024/01/16 03:30:29;;;;;;;3.00;2.10;;;;;;;;;;6088634;23;20030;-78
2024/01/16 03:32:57;;;;;;;3.10;2.00;;;;;;;;;;6086664;23;20050;-78
2024/01/16 03:35:24;;;;;;;4.63;2.43;;;;;;;;;;6089275;23;20037;-78
2024/01/16 03:37:58;;;;;;;5.47;2.60;;;;;;;;;;6088363;23;20030;-77
2024/01/16 03:40:25;;;;;;;5.30;2.63;;;;;;;;;;6086362;23;20512;-77
2024/01/16 03:42:59;;;;;;;2.90;1.73;;;;;;;;;;6090358;23;20061;-77
2024/01/16 03:45:26;;;;;;;3.53;2.30;;;;;;;;;;6089502;23;20532;-77
2024/01/16 03:47:53;;;;;;;3.03;1.77;;;;;;;;;;6090066;23;20026;-78
2024/01/16 03:50:27;;;;;;;4.70;2.10;;;;;;;;;;6089716;23;20054;-78
2024/01/16 03:52:55;;;;;;;4.60;2.63;;;;;;;;;;6089211;23;20026;-78
2024/01/16 03:55:29;;;;;;;7.83;2.50;;;;;;;;;;6089844;23;20396;-77
2024/01/16 03:57:56;;;;;;;4.07;2.40;;;;;;;;;;6089939;23;20090;-77
2024/01/16 04:00:23;;;;;;;3.17;2.00;;;;;;;;;;6089624;23;20030;-77
2024/01/16 04:02:57;;;;;;;4.37;2.20;;;;;;;;;;6089077;23;20032;-78
2024/01/16 04:05:24;;;;;;;3.67;2.17;;;;;;;;;;6088268;23;20468;-77
2024/01/16 04:07:58;;;;;;;3.47;2.40;;;;;;;;;;6089809;23;20511;-77
2024/01/16 04:10:25;;;;;;;3.17;2.07;;;;;;;;;;6089719;23;20034;-77
2024/01/16 04:12:52;;;;;;;2.27;2.10;;;;;;;;;;6090003;23;20061;-77
2024/01/16 04:15:26;;;;;;;4.73;2.33;;;;;;;;;;6088584;23;20030;-77
2024/01/16 04:17:53;;;;;;;4.03;2.47;;;;;;;;;;6089051;23;20030;-77
2024/01/16 04:20:34;;;;;;;3.13;2.10;;;;;;;;;;6089795;23;20029;-77
2024/01/16 04:23:07;;;;;;;3.07;1.97;;;;;;;;;;6090523;23;20524;-77
2024/01/16 04:25:41;;;;;;;2.87;2.07;;;;;;;;;;6089482;23;20026;-77
2024/01/16 04:28:08;;;;;;;6.80;2.57;;;;;;;;;;6088754;23;20026;-77
2024/01/16 04:30:35;;;;;;;3.83;2.27;;;;;;;;;;6088934;23;20022;-76
2024/01/16 04:33:09;;;;;;;3.43;2.27;;;;;;;;;;6089158;23;20027;-77
2024/01/16 04:35:43;;;;;;;2.33;1.97;;;;;;;;;;6089698;23;20030;-77
2024/01/16 04:38:10;;;;;;;2.63;1.60;;;;;;;;;;6088025;23;20104;-78
2024/01/16 04:40:44;;;;;;;3.43;2.50;;;;;;;;;;6089722;23;20030;-78
2024/01/16 04:43:14;;;;;;;3.37;1.93;;;;;;;;;;6088103;23;20026;-77
2024/01/16 04:45:41;;;;;;;2.50;1.97;;;;;;;;;;6089794;23;20035;-78
2024/01/16 04:48:15;;;;;;;4.13;2.50;;;;;;;;;;6089712;23;20027;-78
2024/01/16 04:50:42;;;;;;;5.30;2.20;;;;;;;;;;6089771;23;20046;-78
2024/01/16 04:53:16;;;;;;;4.37;2.33;;;;;;;;;;6092667;23;20050;-78
2024/01/16 04:55:43;;;;;;;4.20;2.00;;;;;;;;;;6089626;23;20022;-78
2024/01/16 04:58:11;;;;;;;4.37;2.27;;;;;;;;;;6092020;23;20344;-77
2024/01/16 05:00:45;;;;;;;3.70;2.23;;;;;;;;;;6086790;23;20090;-77
2024/01/16 05:03:13;;;;;;;4.73;2.30;;;;;;;;;;6091621;23;20365;-77
2024/01/16 05:05:47;;;;;;;4.03;2.40;;;;;;;;;;6089344;23;20065;-77
2024/01/16 05:08:15;;;;;;;2.20;2.00;;;;;;;;;;6091337;23;20034;-77
2024/01/16 05:10:42;;;;;;;3.10;2.40;;;;;;;;;;6090011;23;20030;-77
2024/01/16 05:13:16;;;;;;;2.67;1.97;;;;;;;;;;6086777;23;20081;-78
2024/01/16 05:15:43;;;;;;;7.50;2.63;;;;;;;;;;6089234;23;20022;-79
2024/01/16 05:18:17;;;;;;;5.63;3.10;;;;;;;;;;6089926;23;20568;-78
2024/01/16 05:20:51;;;;;;;3.37;2.13;;;;;;;;;;6087469;23;20026;-78
2024/01/16 05:23:27;;;;;;;4.30;2.03;;;;;;;;;;6087942;23;20106;-79
2024/01/16 05:25:54;;;;;;;4.30;2.53;;;;;;;;;;6088250;23;20029;-78
2024/01/16 05:28:22;;;;;;;4.67;2.50;;;;;;;;;;6090201;23;20030;-78
2024/01/16 05:30:57;;;;;;;5.77;2.80;;;;;;;;;;6086871;23;20325;-78
2024/01/16 05:33:25;;;;;;;2.27;2.00;;;;;;;;;;6088480;23;20357;-78
2024/01/16 05:35:52;;;;;;;6.73;2.23;;;;;;;;;;6089870;23;20041;-77
2024/01/16 05:38:26;;;;;;;2.40;1.90;;;;;;;;;;6086163;23;20544;-78
2024/01/16 05:40:54;;;;;;;4.93;2.70;;;;;;;;;;6088595;23;20049;-78
2024/01/16 05:43:21;;;;;;;3.63;2.07;;;;;;;;;;6085620;23;20034;-78
2024/01/16 05:45:55;;;;;;;2.43;2.23;;;;;;;;;;6087823;23;20027;-78
2024/01/16 05:48:22;;;;;;;3.50;2.53;;;;;;;;;;6087040;23;20074;-78
2024/01/16 05:50:56;;;;;;;2.40;2.20;;;;;;;;;;6086131;23;20028;-77
2024/01/16 05:53:23;;;;;;;3.30;1.97;;;;;;;;;;6087143;23;20030;-78
2024/01/16 05:55:51;;;;;;;6.00;2.60;;;;;;;;;;6083146;23;20349;-78
2024/01/16 05:58:25;;;;;;;2.73;2.27;;;;;;;;;;6088474;23;20023;-78
2024/01/16 06:00:52;;;;;;;3.47;2.03;;;;;;;;;;6089060;23;20085;-78
2024/01/16 06:03:26;;;;;;;2.57;2.10;;;;;;;;;;6090929;23;20097;-77
2024/01/16 06:05:53;;;;;;;3.17;1.90;;;;;;;;;;6088078;23;20598;-78
2024/01/16 06:08:21;;;;;;;4.20;2.33;;;;;;;;;;6089331;23;20019;-78
2024/01/16 06:10:55;;;;;;;3.67;2.37;;;;;;;;;;6089040;23;20026;-78
2024/01/16 06:13:22;;;;;;;4.50;2.20;;;;;;;;;;6090314;23;20030;-78
2024/01/16 06:15:49;;;;;;;1.83;1.73;;;;;;;;;;6091074;23;20446;-78
2024/01/16 06:18:23;;;;;;;4.20;2.00;;;;;;;;;;6088632;23;20026;-78
2024/01/16 06:21:03;;;;;;;2.30;1.83;;;;;;;;;;6084030;23;20106;-78
2024/01/16 06:23:37;;;;;;;2.72;2.10;;;;;;;;;;6091889;23;20026;-79
2024/01/16 06:26:04;;;;;;;4.33;2.40;;;;;;;;;;6089828;23;20527;-79
2024/01/16 06:28:31;;;;;;;3.10;2.30;;;;;;;;;;6089912;23;20421;-79
2024/01/16 06:31:05;;;;;;;2.60;2.03;;;;;;;;;;6089809;23;20030;-79
2024/01/16 06:33:33;;;;;;;3.60;2.17;;;;;;;;;;6089367;23;20543;-79
2024/01/16 06:36:08;;;;;;;1.90;1.80;;;;;;;;;;6090050;23;20034;-78
2024/01/16 06:38:36;;;;;;;4.70;2.17;;;;;;;;;;6091017;23;20097;-79
2024/01/16 06:41:03;;;;;;;2.30;2.10;;;;;;;;;;6090399;23;20026;-79
2024/01/16 06:43:39;;;;;;;5.10;2.70;;;;;;;;;;6091238;23;20034;-79
2024/01/16 06:46:06;;;;;;;4.40;2.60;;;;;;;;;;6092354;23;20342;-79
2024/01/16 06:48:36;;;;;;;2.47;2.27;;;;;;;;;;6091927;23;20030;-79
2024/01/16 06:51:15;;;;;;;4.07;2.10;;;;;;;;;;6091793;23;20057;-79
2024/01/16 06:53:43;;;;;;;2.97;2.13;;;;;;;;;;6090970;23;20030;-79
2024/01/16 06:56:17;;;;;;;2.77;1.77;;;;;;;;;;6092249;23;20101;-77
2024/01/16 06:58:44;;;;;;;1.90;1.77;;;;;;;;;;6090677;23;20026;-78
2024/01/16 07:01:11;;;;;;;3.73;2.00;;;;;;;;;;6090403;23;20581;-79
2024/01/16 07:03:45;;;;;;;1.90;1.70;;;;;;;;;;6090420;23;20022;-78
2024/01/16 07:06:13;;;;;;;2.37;2.17;;;;;;;;;;6090103;23;20029;-79
2024/01/16 07:08:47;;;;;;;1.60;1.50;;;;;;;;;;6089241;23;20448;-79
2024/01/16 07:11:15;;;;;;;5.40;2.30;;;;;;;;;;6089979;23;20019;-79
2024/01/16 07:13:42;;;;;;;2.10;1.73;;;;;;;;;;6091091;23;20029;-78
2024/01/16 07:16:16;;;;;;;2.03;1.80;;;;;;;;;;6090351;23;20026;-79
2024/01/16 07:18:43;;;;;;;3.37;1.90;;;;;;;;;;6089480;23;20027;-79
2024/01/16 07:21:30;;;;;;;3.43;2.20;;;;;;;;;;6090467;23;20078;-79
2024/01/16 07:24:04;;;;;;;1.80;1.70;;;;;;;;;;6090236;23;20035;-79
2024/01/16 07:26:38;;;;;;;2.43;1.67;;;;;;;;;;6089114;23;20094;-78
2024/01/16 07:29:06;;;;;;;3.63;2.43;;;;;;;;;;6087845;23;20464;-79
2024/01/16 07:31:41;;;;;;;1.70;1.60;;;;;;;;;;6089210;23;20109;-79
2024/01/16 07:34:08;;;;;;;2.90;2.20;;;;;;;;;;6087567;23;20033;-79
2024/01/16 07:36:35;;;;;;;4.63;2.13;;;;;;;;;;6090102;23;20122;-78
2024/01/16 07:39:09;;;;;;;1.60;1.50;;;;;;;;;;6089066;23;20035;-79
2024/01/16 07:41:36;;;;;;;3.60;2.40;;;;;;;;;;6091615;23;20022;-79
2024/01/16 07:44:10;;;;;;;3.50;2.63;;;;;;;;;;6089552;23;20109;-78
2024/01/16 07:46:37;;;;;;;4.70;2.43;;;;;;;;;;6089939;23;20026;-79
2024/01/16 07:49:05;;;;;;;3.47;2.00;;;;;;;;;;6090831;23;20369;-79
2024/01/16 07:51:39;;;;;;;2.40;2.13;;;;;;;;;;6090386;23;20034;-81
2024/01/16 07:54:10;;;;;;;4.10;2.30;;;;;;;;;;6085767;23;20029;-82
2024/01/16 07:56:45;;;;;;;9.37;2.70;;;;;;;;;;6090511;23;20034;-80
2024/01/16 07:59:12;;;;;;;3.63;2.77;;;;;;;;;;6089324;23;20069;-78
2024/01/16 08:01:39;;;;;;;2.60;2.30;;;;;;;;;;6090352;23;20062;-80
2024/01/16 08:04:13;;;;;;;1.80;1.70;;;;;;;;;;6090647;23;20018;-80
2024/01/16 08:06:40;;;;;;;1.30;1.30;;;;;;;;;;6089356;23;20109;-79
2024/01/16 08:09:14;;;;;;;3.97;2.37;;;;;;;;;;6090928;23;20612;-79
2024/01/16 08:11:42;;;;;;;5.00;2.50;;;;;;;;;;6090683;23;20460;-79
2024/01/16 08:14:09;;;;;;;2.43;2.23;;;;;;;;;;6089676;23;20086;-78
2024/01/16 08:16:43;;;;;;;2.53;1.70;;;;;;;;;;6089915;23;20030;-78
2024/01/16 08:19:10;;;;;;;1.63;1.53;;;;;;;;;;6090826;23;20094;-78
2024/01/16 08:21:38;;;;;;;4.80;2.17;;;;;;;;;;6088319;23;20365;-78
2024/01/16 08:24:12;;;;;;;9.87;3.20;;;;;;;;;;6088037;23;20030;-81
2024/01/16 08:26:39;;;;;;;4.83;2.57;;;;;;;;;;6091040;23;20105;-78
2024/01/16 08:29:14;;;;;;;4.60;2.07;;;;;;;;;;6089216;23;20079;-80
2024/01/16 08:31:41;;;;;;;2.20;2.00;;;;;;;;;;6089882;23;20029;-80
2024/01/16 08:34:08;;;;;;;6.57;2.73;;;;;;;;;;6091371;23;20081;-78
2024/01/16 08:36:42;;;;;;;1.97;1.80;;;;;;;;;;6090792;23;20023;-80
2024/01/16 08:39:10;;;;;;;1.90;1.70;;;;;;;;;;6090790;23;20385;-77
2024/01/16 08:41:45;;;;;;;4.23;2.27;;;;;;;;;;6090721;23;20360;-80
2024/01/16 08:44:13;;;;;;;2.30;2.10;;;;;;;;;;6092602;23;20050;-77
2024/01/16 08:46:40;;;;;;;3.00;2.10;;;;;;;;;;6090487;23;20032;-78
2024/01/16 08:49:14;;;;;;;4.60;2.30;;;;;;;;;;6090934;23;20027;-77
2024/01/16 08:51:47;;;;;;;4.37;2.47;;;;;;;;;;6091641;23;20050;-77
2024/01/16 08:54:22;;;;;;;1.80;1.67;;;;;;;;;;6088931;23;20528;-78
2024/01/16 08:56:50;;;;;;;2.80;1.90;;;;;;;;;;6090947;23;20073;-78
2024/01/16 08:59:17;;;;;;;2.80;2.27;;;;;;;;;;6089681;23;20058;-78
2024/01/16 09:01:51;;;;;;;4.20;2.40;;;;;;;;;;6090629;23;20026;-78
2024/01/16 09:04:18;;;;;;;4.27;2.80;;;;;;;;;;6090622;23;20484;-77
2024/01/16 09:06:52;;;;;;;4.23;2.60;;;;;;;;;;6089770;23;20023;-78
2024/01/16 09:09:21;;;;;;;5.50;2.43;;;;;;;;;;6090827;23;20022;-78
2024/01/16 09:11:48;;;;;;;3.27;1.63;;;;;;;;;;6090658;23;20030;-78
2024/01/16 09:14:22;;;;;;;5.13;1.20;;;;;;;;;;6090728;23;20022;-78
2024/01/16 09:16:49;;;;;;;5.57;2.63;;;;;;;;;;6090420;23;20703;-78
2024/01/16 09:19:16;;;;;;;7.03;2.70;;;;;;;;;;6091053;23;20504;-78
2024/01/16 09:21:57;;;;;;;4.97;2.60;;;;;;;;;;6089472;23;20025;-78
2024/01/16 09:24:24;;;;;;;4.03;2.27;;;;;;;;;;6090593;23;20091;-78
2024/01/16 09:26:58;;;;;;;4.67;2.43;;;;;;;;;;6090343;23;20812;-78
2024/01/16 09:29:25;;;;;;;3.77;2.50;;;;;;;;;;6090009;23;20030;-78
2024/01/16 09:31:53;;;;;;;3.53;2.60;;;;;;;;;;6089504;23;20453;-78
2024/01/16 09:34:27;;;;;;;5.10;2.10;;;;;;;;;;6091049;23;20026;-78
2024/01/16 09:36:58;;;;;;;6.77;2.30;;;;;;;;;;6090891;23;20025;-78
2024/01/16 09:39:26;;;;;;;5.47;2.53;;;;;;;;;;6090770;23;20113;-78
2024/01/16 09:42:04;;;;;;;3.60;2.33;;;;;;;;;;6090386;23;20081;-78
2024/01/16 09:44:31;;;;;;;6.03;2.27;;;;;;;;;;6089282;23;20490;-78
2024/01/16 09:47:07;;;;;;;4.33;2.30;;;;;;;;;;6089671;23;20081;-78
2024/01/16 09:49:34;;;;;;;2.27;1.63;;;;;;;;;;6090148;23;20081;-78
2024/01/16 09:52:02;;;;;;;7.47;2.13;;;;;;;;;;6091739;23;20026;-77
2024/01/16 09:54:36;;;;;;;5.50;2.53;;;;;;;;;;6091772;23;20026;-78
2024/01/16 09:57:05;;;;;;;7.07;2.63;;;;;;;;;;6091575;23;20361;-78
2024/01/16 09:59:40;;;;;;;5.87;2.97;;;;;;;;;;6091359;23;20030;-80
2024/01/16 10:02:11;;;;;;;5.13;2.40;;;;;;;;;;6092566;23;20468;-80
2024/01/16 10:04:44;;;;;;;5.03;2.28;;;;;;;;;;6092149;23;20054;-80
2024/01/16 10:07:13;;;;;;;7.47;2.57;;;;;;;;;;6090654;23;20041;-80
2024/01/16 10:09:40;;;;;;;6.17;2.53;;;;;;;;;;6092287;23;20037;-80
2024/01/16 10:12:14;;;;;;;7.40;2.47;;;;;;;;;;6091345;23;20081;-80
2024/01/16 10:14:43;;;;;;;4.87;2.23;;;;;;;;;;6091231;23;20026;-80
2024/01/16 10:17:17;;;;;;;1.93;1.73;;;;;;;;;;6091937;23;20030;-80
2024/01/16 10:19:52;;;;;;;4.20;2.70;;;;;;;;;;6089140;23;20030;-80
2024/01/16 10:22:30;;;;;;;4.77;2.13;;;;;;;;;;6089584;23;20058;-81
2024/01/16 10:25:05;;;;;;;5.00;2.77;;;;;;;;;;6091103;23;20499;-80
2024/01/16 10:27:33;;;;;;;4.30;2.50;;;;;;;;;;6092021;23;20052;-81
2024/01/16 10:30:08;;;;;;;5.43;2.97;;;;;;;;;;6092753;23;20131;-80
2024/01/16 10:32:37;;;;;;;5.37;2.47;;;;;;;;;;6092419;23;20030;-79
2024/01/16 10:35:10;;;;;;;5.33;2.90;;;;;;;;;;6091508;23;20026;-80
2024/01/16 10:37:48;;;;;;;6.83;2.87;;;;;;;;;;6092687;23;20027;-80
2024/01/16 10:40:19;;;;;;;5.33;2.50;;;;;;;;;;6090062;23;20026;-80
2024/01/16 10:43:00;;;;;;;8.07;2.63;;;;;;;;;;6087861;23;20030;-80
2024/01/16 10:45:28;;;;;;;6.70;3.33;;;;;;;;;;6090572;23;20107;-80
2024/01/16 10:48:03;;;;;;;7.70;2.97;;;;;;;;;;6091471;23;20078;-77
2024/01/16 10:50:32;;;;;;;9.00;3.20;;;;;;;;;;6090148;23;20022;-77
2024/01/16 10:53:07;;;;;;;5.60;2.67;;;;;;;;;;6091567;23;20061;-77
2024/01/16 10:55:46;;;;;;;4.83;2.53;;;;;;;;;;6090265;23;20468;-77
2024/01/16 10:58:22;;;;;;;6.20;2.33;;;;;;;;;;6090895;23;20030;-78
2024/01/16 11:00:51;;;;;;;6.23;2.70;;;;;;;;;;6087537;23;20057;-77
2024/01/16 11:03:24;;;;;;;6.63;2.93;;;;;;;;;;6091251;23;20484;-77
2024/01/16 11:05:58;;;;;;;8.27;3.00;;;;;;;;;;6089024;23;20037;-78
2024/01/16 11:08:30;;;;;;;8.43;3.10;;;;;;;;;;6091093;23;20030;-77
2024/01/16 11:11:05;;;;;;;7.47;3.07;;;;;;;;;;6083754;23;20068;-78
2024/01/16 11:13:34;;;;;;;9.70;3.23;;;;;;;;;;6090579;23;20668;-77
2024/01/16 11:16:04;;;;;;;10.13;2.90;;;;;;;;;;6090507;23;20065;-77
2024/01/16 11:18:38;;;;;;;5.10;2.70;;;;;;;;;;6090647;23;20045;-78
2024/01/16 11:21:14;;;;;;;7.20;2.57;;;;;;;;;;6086522;23;20464;-77
2024/01/16 11:23:48;;;;;;;6.97;2.77;;;;;;;;;;6090225;23;20061;-77
2024/01/16 11:26:25;;;;;;;7.27;2.93;;;;;;;;;;6090004;23;20096;-77
2024/01/16 11:29:08;;;;;;;7.83;3.00;;;;;;;;;;6090906;23;20026;-77
2024/01/16 11:31:36;;;;;;;6.90;3.07;;;;;;;;;;6087214;23;20026;-79
2024/01/16 11:34:10;;;;;;;5.57;2.63;;;;;;;;;;6090659;23;20026;-77
2024/01/16 11:36:46;;;;;;;5.00;2.63;;;;;;;;;;6090524;23;20032;-78
2024/01/16 11:39:21;;;;;;;5.17;3.00;;;;;;;;;;6090544;23;20030;-77
2024/01/16 11:41:48;;;;;;;6.17;2.93;;;;;;;;;;6088012;23;20026;-78
2024/01/16 11:44:36;;;;;;;5.47;2.67;;;;;;;;;;6090830;23;20448;-78
2024/01/16 11:47:16;;;;;;;4.67;2.63;;;;;;;;;;6090177;23;20045;-77
2024/01/16 11:49:43;;;;;;;9.47;3.07;;;;;;;;;;6088972;23;20030;-77
2024/01/16 11:52:36;;;;;;;6.63;3.00;;;;;;;;;;6090065;23;20023;-77
2024/01/16 11:55:23;;;;;;;5.50;2.57;;;;;;;;;;6087813;23;20034;-77
2024/01/16 11:58:16;;;;;;;5.53;3.17;;;;;;;;;;6091208;23;20049;-78
2024/01/16 12:00:45;;;;;;;5.90;2.63;;;;;;;;;;6087874;23;20472;-78
2024/01/16 12:03:21;;;;;;;3.97;2.30;;;;;;;;;;6090433;23;20018;-78
2024/01/16 12:06:01;;;;;;;7.80;2.77;;;;;;;;;;6088678;23;20105;-77
2024/01/16 12:08:37;;;;;;;6.20;2.87;;;;;;;;;;6091033;23;20086;-77
2024/01/16 12:11:11;;;;;;;6.60;2.93;;;;;;;;;;6089765;23;20042;-77
2024/01/16 12:14:01;;;;;;;6.70;2.20;;;;;;;;;;6091266;23;20022;-79
2024/01/16 12:16:35;;;;;;;13.68;3.15;;;;;;;;;;6090287;23;20106;-79
2024/01/16 12:19:09;;;;;;;7.80;2.87;;;;;;;;;;6090504;23;20022;-80
2024/01/16 12:21:51;;;;;;;3.77;2.07;;;;;;;;;;6087203;23;20026;-77
2024/01/16 12:24:25;;;;;;;;;;;;;;;;;;6092464;23;20026;-79
2024/01/16 12:26:52;;;;;;;6.83;2.83;;;;;;;;;;6090268;23;19917;-79
2024/01/16 12:29:20;;;;;;;4.20;2.57;;;;;;;;;;6089503;23;20058;-80
2024/01/16 12:32:27;;;;;;;4.00;2.47;;;;;;;;;;6087871;23;20026;-80
2024/01/16 12:35:01;;;;;;;4.53;2.30;;;;;;;;;;6047185;23;20786;-80
2024/01/16 12:37:35;;;;;;;8.33;2.40;;;;;;;;;;6087122;23;20110;-80
2024/01/16 12:40:09;;;;;;;5.77;2.47;;;;;;;;;;6088926;23;20483;-80
2024/01/16 12:42:36;;;;;;;8.30;2.47;;;;;;;;;;6085547;23;20498;-79
2024/01/16 12:45:10;;;;;;;6.27;2.93;;;;;;;;;;6091149;23;20026;-80
2024/01/16 12:47:37;;;;;;;4.07;2.33;;;;;;;;;;6089026;23;20038;-79
2024/01/16 12:50:05;;;;;;;5.97;2.67;;;;;;;;;;6089854;23;20325;-80
2024/01/16 12:52:41;;;;;;;5.27;2.77;;;;;;;;;;6089785;23;20824;-80
2024/01/16 12:55:08;;;;;;;5.43;2.57;;;;;;;;;;6089299;23;20476;-79
2024/01/16 12:57:42;;;;;;;7.73;3.07;;;;;;;;;;6089871;23;20026;-80
2024/01/16 13:00:22;;;;;;;6.63;2.97;;;;;;;;;;6088897;23;20093;-79
2024/01/16 13:02:51;;;;;;;5.10;2.60;;;;;;;;;;6089941;23;20018;-80
2024/01/16 13:05:25;;;;;;;5.70;2.90;;;;;;;;;;6089543;23;20033;-80
2024/01/16 13:08:03;;;;;;;5.90;2.80;;;;;;;;;;6090156;23;20026;-80
2024/01/16 13:10:37;;;;;;;5.87;2.87;;;;;;;;;;6088417;23;20022;-80
2024/01/16 13:13:18;;;;;;;5.97;2.83;;;;;;;;;;6087330;23;20030;-80
2024/01/16 13:15:52;;;;;;;9.53;2.93;;;;;;;;;;6088710;23;20080;-80
2024/01/16 13:18:23;;;;;;;10.83;2.70;;;;;;;;;;6089862;23;20432;-79
2024/01/16 13:21:11;;;;;;;2.87;2.10;;;;;;;;;;6087536;23;20037;-80
2024/01/16 13:23:45;;;;;;;6.78;2.10;;;;;;;;;;6088622;23;20030;-80
2024/01/16 13:26:27;;;;;;;4.70;1.90;;;;;;;;;;6088814;23;20066;-79
2024/01/16 13:28:54;;;;;;;4.37;2.07;;;;;;;;;;6090874;23;20124;-79
2024/01/16 13:31:28;;;;;;;2.73;1.80;;;;;;;;;;6088911;23;20030;-80
2024/01/16 13:33:56;;;;;;;5.53;2.00;;;;;;;;;;6091612;23;20023;-80
2024/01/16 13:36:30;;;;;;;4.77;1.73;;;;;;;;;;6089141;23;20029;-79
2024/01/16 13:39:25;;;;;;;4.03;1.77;;;;;;;;;;6089760;23;20033;-80
2024/01/16 13:41:52;;;;;;;2.17;1.67;;;;;;;;;;6091855;23;20032;-80
2024/01/16 13:44:29;;;;;;;1.57;1.30;;;;;;;;;;6091227;23;20026;-80
2024/01/16 13:46:56;;;;;;;2.03;1.53;;;;;;;;;;6091006;23;20630;-80
2024/01/16 13:49:35;;;;;;;2.30;1.57;;;;;;;;;;6090906;23;20337;-79
2024/01/16 13:52:09;;;;;;;2.53;1.67;;;;;;;;;;6090602;23;20047;-80
2024/01/16 13:54:39;;;;;;;2.70;1.80;;;;;;;;;;6091590;23;20034;-80
2024/01/16 13:57:13;;;;;;;4.90;2.07;;;;;;;;;;6091130;23;20030;-80
2024/01/16 13:59:40;;;;;;;4.27;1.90;;;;;;;;;;6090648;23;20030;-80
2024/01/16 14:02:08;;;;;;;4.13;1.87;;;;;;;;;;6091241;23;20027;-80
2024/01/16 14:04:42;;;;;;;3.10;1.70;;;;;;;;;;6092283;23;20352;-80
2024/01/16 14:07:09;;;;;;;2.87;1.70;;;;;;;;;;6090733;23;20022;-80
2024/01/16 14:09:43;;;;;;;8.07;4.47;;;;;;;;;;6088437;23;20022;-80
2024/01/16 14:12:12;;;;;;;9.37;2.00;;;;;;;;;;6092559;23;20054;-80
2024/01/16 14:14:43;;;;;;;8.97;2.07;;;;;;;;;;6091895;23;20049;-80
2024/01/16 14:17:17;;;;;;;5.22;2.03;;;;;;;;;;6091959;23;20061;-79
2024/01/16 14:19:44;;;;;;;3.70;1.77;;;;;;;;;;6091388;23;20129;-80
2024/01/16 14:22:26;;;;;;;3.83;1.90;;;;;;;;;;6091917;23;20111;-80
2024/01/16 14:24:53;;;;;;;3.63;1.87;;;;;;;;;;6091984;23;20022;-80
2024/01/16 14:27:27;;;;;;;10.83;1.87;;;;;;;;;;6092457;23;20478;-80
2024/01/16 14:29:54;;;;;;;2.13;1.60;;;;;;;;;;6090170;23;20030;-77
2024/01/16 14:32:28;;;;;;;4.60;2.10;;;;;;;;;;6088118;23;20023;-78
2024/01/16 14:34:55;;;;;;;4.60;2.00;;;;;;;;;;6091991;23;20030;-77
2024/01/16 14:37:29;;;;;;;3.50;1.77;;;;;;;;;;6089780;23;20410;-78
2024/01/16 14:39:56;;;;;;;5.53;1.50;;;;;;;;;;6090563;23;20026;-78
2024/01/16 14:42:23;;;;;;;3.87;1.97;;;;;;;;;;6091083;23;20310;-80
2024/01/16 14:44:57;;;;;;;3.90;1.50;;;;;;;;;;6091694;23;20026;-77
2024/01/16 14:47:25;;;;;;;6.20;1.80;;;;;;;;;;6090099;23;20085;-78
2024/01/16 14:49:59;;;;;;;3.73;1.73;;;;;;;;;;6090774;23;20026;-78
2024/01/16 14:52:26;;;;;;;3.80;1.70;;;;;;;;;;6089749;23;20022;-78
2024/01/16 14:54:53;;;;;;;5.83;1.90;;;;;;;;;;6090517;23;20025;-78
2024/01/16 14:57:30;;;;;;;7.20;1.70;;;;;;;;;;6087070;23;20030;-77
2024/01/16 14:59:57;;;;;;;4.10;1.63;;;;;;;;;;6091354;23;20555;-78
2024/01/16 15:02:25;;;;;;;4.00;2.23;;;;;;;;;;6088894;23;20022;-78
2024/01/16 15:04:58;;;;;;;4.53;1.80;;;;;;;;;;6088648;23;20034;-77
2024/01/16 15:07:33;;;;;;;15.03;8.67;;;;;;;;;;6090024;23;20030;-78
2024/01/16 15:10:00;;;;;;;46.53;24.57;;;;;;;;;;6089514;23;20026;-78